sensor_id;sensor_type;location;lat;lon;timestamp;P1;durP1;ratioP1;P2;durP2;ratioP2
15104;SDS011;7653;48.994;9.212;2023-04-23T00:00:21;10.43;;;8.77;;
15104;SDS011;7653;48.994;9.212;2023-04-23T00:02:48;8.17;;;7.23;;
15104;SDS011;7653;48.994;9.212;2023-04-23T00:05:17;9.10;;;6.87;;
15104;SDS011;7653;48.994;9.212;2023-04-23T00:07:43;9.70;;;6.90;;
15104;SDS011;7653;48.994;9.212;2023-04-23T00:10:10;9.00;;;6.83;;
15104;SDS011;7653;48.994;9.212;2023-04-23T00:12:36;8.33;;;6.37;;
15104;SDS011;7653;48.994;9.212;2023-04-23T00:15:02;7.73;;;6.83;;
15104;SDS011;7653;48.994;9.212;2023-04-23T00:17:29;8.43;;;6.90;;
15104;SDS011;7653;48.994;9.212;2023-04-23T00:19:54;9.33;;;6.30;;
15104;SDS011;7653;48.994;9.212;2023-04-23T00:22:20;8.30;;;6.77;;
15104;SDS011;7653;48.994;9.212;2023-04-23T00:24:46;7.50;;;6.50;;
15104;SDS011;7653;48.994;9.212;2023-04-23T00:27:12;10.53;;;7.43;;
15104;SDS011;7653;48.994;9.212;2023-04-23T00:29:37;9.70;;;6.63;;
15104;SDS011;7653;48.994;9.212;2023-04-23T00:32:03;6.60;;;6.00;;
15104;SDS011;7653;48.994;9.212;2023-04-23T00:34:29;10.00;;;6.20;;
15104;SDS011;7653;48.994;9.212;2023-04-23T00:36:55;7.30;;;5.80;;
15104;SDS011;7653;48.994;9.212;2023-04-23T00:39:20;6.27;;;5.43;;
15104;SDS011;7653;48.994;9.212;2023-04-23T00:41:46;6.90;;;6.00;;
15104;SDS011;7653;48.994;9.212;2023-04-23T00:44:13;7.97;;;6.43;;
15104;SDS011;7653;48.994;9.212;2023-04-23T00:46:38;6.63;;;5.93;;
15104;SDS011;7653;48.994;9.212;2023-04-23T00:49:04;9.43;;;6.37;;
15104;SDS011;7653;48.994;9.212;2023-04-23T00:51:30;6.80;;;6.10;;
15104;SDS011;7653;48.994;9.212;2023-04-23T00:53:58;6.57;;;5.17;;
15104;SDS011;7653;48.994;9.212;2023-04-23T00:56:24;7.53;;;5.50;;
15104;SDS011;7653;48.994;9.212;2023-04-23T00:58:51;6.60;;;4.77;;
15104;SDS011;7653;48.994;9.212;2023-04-23T01:01:18;6.10;;;4.80;;
15104;SDS011;7653;48.994;9.212;2023-04-23T01:03:45;5.77;;;4.70;;
15104;SDS011;7653;48.994;9.212;2023-04-23T01:06:16;5.27;;;4.37;;
15104;SDS011;7653;48.994;9.212;2023-04-23T01:08:42;7.97;;;4.57;;
15104;SDS011;7653;48.994;9.212;2023-04-23T01:11:09;5.57;;;4.50;;
15104;SDS011;7653;48.994;9.212;2023-04-23T01:13:38;6.40;;;4.60;;
15104;SDS011;7653;48.994;9.212;2023-04-23T01:16:04;5.97;;;4.50;;
15104;SDS011;7653;48.994;9.212;2023-04-23T01:18:29;7.03;;;4.70;;
15104;SDS011;7653;48.994;9.212;2023-04-23T01:20:55;4.80;;;4.10;;
15104;SDS011;7653;48.994;9.212;2023-04-23T01:23:21;4.10;;;3.70;;
15104;SDS011;7653;48.994;9.212;2023-04-23T01:25:46;6.80;;;3.83;;
15104;SDS011;7653;48.994;9.212;2023-04-23T01:28:12;4.67;;;3.47;;
15104;SDS011;7653;48.994;9.212;2023-04-23T01:30:41;3.87;;;3.27;;
15104;SDS011;7653;48.994;9.212;2023-04-23T01:33:08;4.10;;;3.27;;
15104;SDS011;7653;48.994;9.212;2023-04-23T01:35:34;3.73;;;2.97;;
15104;SDS011;7653;48.994;9.212;2023-04-23T01:38:01;4.70;;;3.60;;
15104;SDS011;7653;48.994;9.212;2023-04-23T01:40:28;4.83;;;3.70;;
15104;SDS011;7653;48.994;9.212;2023-04-23T01:42:54;4.63;;;2.97;;
15104;SDS011;7653;48.994;9.212;2023-04-23T01:45:20;4.73;;;3.80;;
15104;SDS011;7653;48.994;9.212;2023-04-23T01:47:47;5.60;;;3.30;;
15104;SDS011;7653;48.994;9.212;2023-04-23T01:50:13;4.23;;;3.83;;
15104;SDS011;7653;48.994;9.212;2023-04-23T01:52:39;4.57;;;3.40;;
15104;SDS011;7653;48.994;9.212;2023-04-23T01:55:06;7.37;;;3.83;;
15104;SDS011;7653;48.994;9.212;2023-04-23T01:57:32;6.87;;;3.83;;
15104;SDS011;7653;48.994;9.212;2023-04-23T02:00:00;5.57;;;4.03;;
15104;SDS011;7653;48.994;9.212;2023-04-23T02:02:35;4.67;;;3.77;;
15104;SDS011;7653;48.994;9.212;2023-04-23T02:05:02;5.33;;;3.83;;
15104;SDS011;7653;48.994;9.212;2023-04-23T02:07:32;7.40;;;4.43;;
15104;SDS011;7653;48.994;9.212;2023-04-23T02:09:58;4.37;;;3.43;;
15104;SDS011;7653;48.994;9.212;2023-04-23T02:12:24;4.27;;;3.87;;
15104;SDS011;7653;48.994;9.212;2023-04-23T02:14:50;5.60;;;3.77;;
15104;SDS011;7653;48.994;9.212;2023-04-23T02:17:18;6.00;;;4.00;;
15104;SDS011;7653;48.994;9.212;2023-04-23T02:19:46;6.20;;;4.07;;
15104;SDS011;7653;48.994;9.212;2023-04-23T02:22:12;6.03;;;4.13;;
15104;SDS011;7653;48.994;9.212;2023-04-23T02:24:39;4.33;;;3.87;;
15104;SDS011;7653;48.994;9.212;2023-04-23T02:27:06;6.03;;;3.97;;
15104;SDS011;7653;48.994;9.212;2023-04-23T02:29:32;4.17;;;3.77;;
15104;SDS011;7653;48.994;9.212;2023-04-23T02:31:58;4.03;;;3.63;;
15104;SDS011;7653;48.994;9.212;2023-04-23T02:34:23;5.83;;;4.20;;
15104;SDS011;7653;48.994;9.212;2023-04-23T02:36:49;4.87;;;4.23;;
15104;SDS011;7653;48.994;9.212;2023-04-23T02:39:15;5.40;;;4.40;;
15104;SDS011;7653;48.994;9.212;2023-04-23T02:41:41;4.97;;;4.30;;
15104;SDS011;7653;48.994;9.212;2023-04-23T02:44:06;8.83;;;4.60;;
15104;SDS011;7653;48.994;9.212;2023-04-23T02:46:32;5.73;;;4.13;;
15104;SDS011;7653;48.994;9.212;2023-04-23T02:48:58;7.53;;;4.43;;
15104;SDS011;7653;48.994;9.212;2023-04-23T02:51:23;5.70;;;4.37;;
15104;SDS011;7653;48.994;9.212;2023-04-23T02:53:49;6.27;;;4.73;;
15104;SDS011;7653;48.994;9.212;2023-04-23T02:56:14;6.97;;;4.83;;
15104;SDS011;7653;48.994;9.212;2023-04-23T02:58:40;8.33;;;4.70;;
15104;SDS011;7653;48.994;9.212;2023-04-23T03:01:06;6.00;;;4.70;;
15104;SDS011;7653;48.994;9.212;2023-04-23T03:03:32;6.07;;;4.37;;
15104;SDS011;7653;48.994;9.212;2023-04-23T03:05:58;7.40;;;5.00;;
15104;SDS011;7653;48.994;9.212;2023-04-23T03:08:25;5.70;;;5.03;;
15104;SDS011;7653;48.994;9.212;2023-04-23T03:10:51;7.93;;;5.50;;
15104;SDS011;7653;48.994;9.212;2023-04-23T03:13:16;6.03;;;4.57;;
15104;SDS011;7653;48.994;9.212;2023-04-23T03:15:42;7.17;;;4.83;;
15104;SDS011;7653;48.994;9.212;2023-04-23T03:18:08;6.17;;;4.57;;
15104;SDS011;7653;48.994;9.212;2023-04-23T03:20:34;7.50;;;4.67;;
15104;SDS011;7653;48.994;9.212;2023-04-23T03:23:00;6.53;;;4.70;;
15104;SDS011;7653;48.994;9.212;2023-04-23T03:25:26;7.63;;;5.37;;
15104;SDS011;7653;48.994;9.212;2023-04-23T03:27:52;5.80;;;4.90;;
15104;SDS011;7653;48.994;9.212;2023-04-23T03:30:19;5.40;;;4.80;;
15104;SDS011;7653;48.994;9.212;2023-04-23T03:32:44;5.77;;;4.93;;
15104;SDS011;7653;48.994;9.212;2023-04-23T03:35:10;5.83;;;4.77;;
15104;SDS011;7653;48.994;9.212;2023-04-23T03:37:36;5.70;;;4.63;;
15104;SDS011;7653;48.994;9.212;2023-04-23T03:40:01;6.80;;;5.00;;
15104;SDS011;7653;48.994;9.212;2023-04-23T03:42:31;6.77;;;5.30;;
15104;SDS011;7653;48.994;9.212;2023-04-23T03:44:57;5.43;;;4.90;;
15104;SDS011;7653;48.994;9.212;2023-04-23T03:47:24;7.27;;;5.20;;
15104;SDS011;7653;48.994;9.212;2023-04-23T03:49:50;7.73;;;5.27;;
15104;SDS011;7653;48.994;9.212;2023-04-23T03:52:16;6.20;;;5.10;;
15104;SDS011;7653;48.994;9.212;2023-04-23T03:54:42;6.57;;;5.17;;
15104;SDS011;7653;48.994;9.212;2023-04-23T03:57:08;6.50;;;4.87;;
15104;SDS011;7653;48.994;9.212;2023-04-23T03:59:35;6.70;;;5.23;;
15104;SDS011;7653;48.994;9.212;2023-04-23T04:02:01;6.70;;;5.33;;
15104;SDS011;7653;48.994;9.212;2023-04-23T04:04:28;7.07;;;5.90;;
15104;SDS011;7653;48.994;9.212;2023-04-23T04:06:57;8.90;;;6.20;;
15104;SDS011;7653;48.994;9.212;2023-04-23T04:09:26;9.83;;;5.67;;
15104;SDS011;7653;48.994;9.212;2023-04-23T04:11:52;8.43;;;6.03;;
15104;SDS011;7653;48.994;9.212;2023-04-23T04:14:18;7.27;;;5.80;;
15104;SDS011;7653;48.994;9.212;2023-04-23T04:16:45;7.53;;;6.07;;
15104;SDS011;7653;48.994;9.212;2023-04-23T04:19:10;6.67;;;5.77;;
15104;SDS011;7653;48.994;9.212;2023-04-23T04:21:36;7.07;;;5.50;;
15104;SDS011;7653;48.994;9.212;2023-04-23T04:24:02;9.10;;;6.10;;
15104;SDS011;7653;48.994;9.212;2023-04-23T04:26:28;8.47;;;6.10;;
15104;SDS011;7653;48.994;9.212;2023-04-23T04:28:56;8.10;;;6.07;;
15104;SDS011;7653;48.994;9.212;2023-04-23T04:31:26;6.47;;;5.87;;
15104;SDS011;7653;48.994;9.212;2023-04-23T04:33:52;8.43;;;5.50;;
15104;SDS011;7653;48.994;9.212;2023-04-23T04:36:19;8.67;;;6.03;;
15104;SDS011;7653;48.994;9.212;2023-04-23T04:38:45;7.43;;;6.30;;
15104;SDS011;7653;48.994;9.212;2023-04-23T04:41:11;6.87;;;6.00;;
15104;SDS011;7653;48.994;9.212;2023-04-23T04:43:37;7.67;;;6.47;;
15104;SDS011;7653;48.994;9.212;2023-04-23T04:46:04;9.80;;;6.80;;
15104;SDS011;7653;48.994;9.212;2023-04-23T04:48:30;13.03;;;7.40;;
15104;SDS011;7653;48.994;9.212;2023-04-23T04:50:55;7.50;;;6.60;;
15104;SDS011;7653;48.994;9.212;2023-04-23T04:53:21;8.20;;;6.40;;
15104;SDS011;7653;48.994;9.212;2023-04-23T04:55:47;9.40;;;6.50;;
15104;SDS011;7653;48.994;9.212;2023-04-23T04:58:13;8.83;;;6.80;;
15104;SDS011;7653;48.994;9.212;2023-04-23T05:00:39;9.30;;;7.10;;
15104;SDS011;7653;48.994;9.212;2023-04-23T05:03:05;8.63;;;6.17;;
15104;SDS011;7653;48.994;9.212;2023-04-23T05:05:31;10.17;;;7.10;;
15104;SDS011;7653;48.994;9.212;2023-04-23T05:07:57;9.07;;;7.60;;
15104;SDS011;7653;48.994;9.212;2023-04-23T05:10:28;10.23;;;6.50;;
15104;SDS011;7653;48.994;9.212;2023-04-23T05:12:57;10.03;;;6.63;;
15104;SDS011;7653;48.994;9.212;2023-04-23T05:15:24;8.50;;;6.50;;
15104;SDS011;7653;48.994;9.212;2023-04-23T05:17:50;9.33;;;6.97;;
15104;SDS011;7653;48.994;9.212;2023-04-23T05:20:17;9.00;;;7.17;;
15104;SDS011;7653;48.994;9.212;2023-04-23T05:22:44;7.87;;;6.80;;
15104;SDS011;7653;48.994;9.212;2023-04-23T05:25:10;9.77;;;6.97;;
15104;SDS011;7653;48.994;9.212;2023-04-23T05:27:36;9.43;;;6.63;;
15104;SDS011;7653;48.994;9.212;2023-04-23T05:30:02;7.77;;;6.67;;
15104;SDS011;7653;48.994;9.212;2023-04-23T05:32:30;8.43;;;6.27;;
15104;SDS011;7653;48.994;9.212;2023-04-23T05:34:56;7.90;;;6.13;;
15104;SDS011;7653;48.994;9.212;2023-04-23T05:37:24;10.77;;;6.60;;
15104;SDS011;7653;48.994;9.212;2023-04-23T05:39:49;7.27;;;6.40;;
15104;SDS011;7653;48.994;9.212;2023-04-23T05:42:15;8.50;;;5.93;;
15104;SDS011;7653;48.994;9.212;2023-04-23T05:44:41;8.20;;;6.37;;
15104;SDS011;7653;48.994;9.212;2023-04-23T05:47:06;7.17;;;5.83;;
15104;SDS011;7653;48.994;9.212;2023-04-23T05:49:33;7.40;;;5.77;;
15104;SDS011;7653;48.994;9.212;2023-04-23T05:52:00;5.77;;;5.00;;
15104;SDS011;7653;48.994;9.212;2023-04-23T05:54:27;6.23;;;5.00;;
15104;SDS011;7653;48.994;9.212;2023-04-23T05:56:53;5.10;;;3.17;;
15104;SDS011;7653;48.994;9.212;2023-04-23T05:59:18;4.60;;;3.23;;
15104;SDS011;7653;48.994;9.212;2023-04-23T06:01:45;4.43;;;3.00;;
15104;SDS011;7653;48.994;9.212;2023-04-23T06:04:11;3.77;;;2.87;;
15104;SDS011;7653;48.994;9.212;2023-04-23T06:06:37;4.07;;;2.90;;
15104;SDS011;7653;48.994;9.212;2023-04-23T06:09:03;2.70;;;2.40;;
15104;SDS011;7653;48.994;9.212;2023-04-23T06:11:29;2.33;;;2.13;;
15104;SDS011;7653;48.994;9.212;2023-04-23T06:13:56;3.20;;;2.23;;
15104;SDS011;7653;48.994;9.212;2023-04-23T06:16:23;2.57;;;2.10;;
15104;SDS011;7653;48.994;9.212;2023-04-23T06:18:49;2.20;;;2.00;;
15104;SDS011;7653;48.994;9.212;2023-04-23T06:21:14;1.97;;;1.87;;
15104;SDS011;7653;48.994;9.212;2023-04-23T06:23:40;5.03;;;1.60;;
15104;SDS011;7653;48.994;9.212;2023-04-23T06:26:06;3.73;;;1.50;;
15104;SDS011;7653;48.994;9.212;2023-04-23T06:28:32;3.00;;;1.90;;
15104;SDS011;7653;48.994;9.212;2023-04-23T06:30:58;2.93;;;1.90;;
15104;SDS011;7653;48.994;9.212;2023-04-23T06:33:23;2.40;;;1.70;;
15104;SDS011;7653;48.994;9.212;2023-04-23T06:35:49;2.77;;;1.67;;
15104;SDS011;7653;48.994;9.212;2023-04-23T06:38:15;2.23;;;1.80;;
15104;SDS011;7653;48.994;9.212;2023-04-23T06:40:42;2.37;;;1.70;;
15104;SDS011;7653;48.994;9.212;2023-04-23T06:43:08;2.10;;;1.70;;
15104;SDS011;7653;48.994;9.212;2023-04-23T06:45:34;3.10;;;2.57;;
15104;SDS011;7653;48.994;9.212;2023-04-23T06:48:00;4.13;;;3.20;;
15104;SDS011;7653;48.994;9.212;2023-04-23T06:50:25;5.93;;;3.37;;
15104;SDS011;7653;48.994;9.212;2023-04-23T06:52:51;5.47;;;3.10;;
15104;SDS011;7653;48.994;9.212;2023-04-23T06:55:17;3.00;;;2.70;;
15104;SDS011;7653;48.994;9.212;2023-04-23T06:57:44;4.47;;;3.60;;
15104;SDS011;7653;48.994;9.212;2023-04-23T07:00:10;3.73;;;3.20;;
15104;SDS011;7653;48.994;9.212;2023-04-23T07:02:36;2.97;;;2.67;;
15104;SDS011;7653;48.994;9.212;2023-04-23T07:05:02;2.30;;;2.10;;
15104;SDS011;7653;48.994;9.212;2023-04-23T07:07:28;2.87;;;2.23;;
15104;SDS011;7653;48.994;9.212;2023-04-23T07:09:53;2.40;;;1.87;;
15104;SDS011;7653;48.994;9.212;2023-04-23T07:12:19;2.17;;;1.90;;
15104;SDS011;7653;48.994;9.212;2023-04-23T07:14:45;3.67;;;2.20;;
15104;SDS011;7653;48.994;9.212;2023-04-23T07:17:11;4.37;;;2.27;;
15104;SDS011;7653;48.994;9.212;2023-04-23T07:19:37;1.93;;;1.83;;
15104;SDS011;7653;48.994;9.212;2023-04-23T07:22:02;2.53;;;2.00;;
15104;SDS011;7653;48.994;9.212;2023-04-23T07:24:28;2.17;;;1.90;;
15104;SDS011;7653;48.994;9.212;2023-04-23T07:26:54;3.20;;;1.83;;
15104;SDS011;7653;48.994;9.212;2023-04-23T07:29:19;2.60;;;1.87;;
15104;SDS011;7653;48.994;9.212;2023-04-23T07:31:45;1.60;;;1.40;;
15104;SDS011;7653;48.994;9.212;2023-04-23T07:34:12;2.13;;;1.90;;
15104;SDS011;7653;48.994;9.212;2023-04-23T07:36:41;2.70;;;2.10;;
15104;SDS011;7653;48.994;9.212;2023-04-23T07:39:06;2.17;;;1.87;;
15104;SDS011;7653;48.994;9.212;2023-04-23T07:41:32;2.10;;;1.90;;
15104;SDS011;7653;48.994;9.212;2023-04-23T07:43:59;1.73;;;1.63;;
15104;SDS011;7653;48.994;9.212;2023-04-23T07:46:25;2.43;;;1.90;;
15104;SDS011;7653;48.994;9.212;2023-04-23T07:48:50;2.07;;;1.73;;
15104;SDS011;7653;48.994;9.212;2023-04-23T07:51:17;1.73;;;1.63;;
15104;SDS011;7653;48.994;9.212;2023-04-23T07:53:42;2.20;;;2.00;;
15104;SDS011;7653;48.994;9.212;2023-04-23T07:56:08;2.00;;;1.80;;
15104;SDS011;7653;48.994;9.212;2023-04-23T07:58:34;3.17;;;1.73;;
15104;SDS011;7653;48.994;9.212;2023-04-23T08:01:00;2.07;;;1.57;;
15104;SDS011;7653;48.994;9.212;2023-04-23T08:03:27;3.60;;;1.50;;
15104;SDS011;7653;48.994;9.212;2023-04-23T08:05:52;1.40;;;1.30;;
15104;SDS011;7653;48.994;9.212;2023-04-23T08:08:18;2.27;;;1.23;;
15104;SDS011;7653;48.994;9.212;2023-04-23T08:10:44;1.77;;;1.20;;
15104;SDS011;7653;48.994;9.212;2023-04-23T08:13:10;1.80;;;1.20;;
15104;SDS011;7653;48.994;9.212;2023-04-23T08:15:35;1.00;;;1.00;;
15104;SDS011;7653;48.994;9.212;2023-04-23T08:18:02;2.63;;;1.60;;
15104;SDS011;7653;48.994;9.212;2023-04-23T08:20:28;1.50;;;1.40;;
15104;SDS011;7653;48.994;9.212;2023-04-23T08:22:54;2.07;;;1.10;;
15104;SDS011;7653;48.994;9.212;2023-04-23T08:25:20;2.60;;;1.40;;
15104;SDS011;7653;48.994;9.212;2023-04-23T08:27:46;1.43;;;1.33;;
15104;SDS011;7653;48.994;9.212;2023-04-23T08:30:11;1.57;;;1.30;;
15104;SDS011;7653;48.994;9.212;2023-04-23T08:32:37;2.50;;;1.60;;
15104;SDS011;7653;48.994;9.212;2023-04-23T08:35:04;1.97;;;1.70;;
15104;SDS011;7653;48.994;9.212;2023-04-23T08:37:32;2.03;;;1.60;;
15104;SDS011;7653;48.994;9.212;2023-04-23T08:39:58;2.30;;;2.10;;
15104;SDS011;7653;48.994;9.212;2023-04-23T08:45:16;2.07;;;1.47;;
15104;SDS011;7653;48.994;9.212;2023-04-23T08:47:43;1.67;;;1.47;;
15104;SDS011;7653;48.994;9.212;2023-04-23T08:50:13;3.63;;;1.90;;
15104;SDS011;7653;48.994;9.212;2023-04-23T08:52:45;1.67;;;1.57;;
15104;SDS011;7653;48.994;9.212;2023-04-23T08:55:13;2.10;;;1.90;;
15104;SDS011;7653;48.994;9.212;2023-04-23T08:57:40;2.33;;;1.70;;
15104;SDS011;7653;48.994;9.212;2023-04-23T09:00:07;2.73;;;1.83;;
15104;SDS011;7653;48.994;9.212;2023-04-23T09:02:35;2.00;;;1.37;;
15104;SDS011;7653;48.994;9.212;2023-04-23T09:05:08;1.50;;;1.40;;
15104;SDS011;7653;48.994;9.212;2023-04-23T09:07:34;2.67;;;1.80;;
15104;SDS011;7653;48.994;9.212;2023-04-23T09:10:01;2.17;;;1.53;;
15104;SDS011;7653;48.994;9.212;2023-04-23T09:12:27;1.87;;;1.70;;
15104;SDS011;7653;48.994;9.212;2023-04-23T09:14:53;1.83;;;1.60;;
15104;SDS011;7653;48.994;9.212;2023-04-23T09:17:20;1.70;;;1.60;;
15104;SDS011;7653;48.994;9.212;2023-04-23T09:19:47;1.80;;;1.70;;
15104;SDS011;7653;48.994;9.212;2023-04-23T09:22:15;2.77;;;1.80;;
15104;SDS011;7653;48.994;9.212;2023-04-23T09:25:01;1.63;;;1.50;;
15104;SDS011;7653;48.994;9.212;2023-04-23T09:27:29;1.87;;;1.50;;
15104;SDS011;7653;48.994;9.212;2023-04-23T09:29:55;2.47;;;1.40;;
15104;SDS011;7653;48.994;9.212;2023-04-23T09:32:25;1.83;;;1.50;;
15104;SDS011;7653;48.994;9.212;2023-04-23T09:34:57;2.53;;;1.43;;
15104;SDS011;7653;48.994;9.212;2023-04-23T09:37:26;2.70;;;1.60;;
15104;SDS011;7653;48.994;9.212;2023-04-23T09:39:52;2.63;;;1.73;;
15104;SDS011;7653;48.994;9.212;2023-04-23T09:42:22;1.60;;;1.50;;
15104;SDS011;7653;48.994;9.212;2023-04-23T09:45:07;1.90;;;1.70;;
15104;SDS011;7653;48.994;9.212;2023-04-23T09:47:40;2.93;;;1.57;;
15104;SDS011;7653;48.994;9.212;2023-04-23T09:50:12;2.40;;;1.60;;
15104;SDS011;7653;48.994;9.212;2023-04-23T09:52:38;2.47;;;1.53;;
15104;SDS011;7653;48.994;9.212;2023-04-23T09:55:05;1.63;;;1.40;;
15104;SDS011;7653;48.994;9.212;2023-04-23T09:57:34;1.70;;;1.60;;
15104;SDS011;7653;48.994;9.212;2023-04-23T10:00:11;1.70;;;1.60;;
15104;SDS011;7653;48.994;9.212;2023-04-23T10:02:48;1.97;;;1.70;;
15104;SDS011;7653;48.994;9.212;2023-04-23T10:05:19;2.33;;;1.63;;
15104;SDS011;7653;48.994;9.212;2023-04-23T10:07:46;1.87;;;1.70;;
15104;SDS011;7653;48.994;9.212;2023-04-23T10:10:16;2.13;;;1.90;;
15104;SDS011;7653;48.994;9.212;2023-04-23T10:12:43;1.87;;;1.50;;
15104;SDS011;7653;48.994;9.212;2023-04-23T10:15:09;4.30;;;1.83;;
15104;SDS011;7653;48.994;9.212;2023-04-23T10:17:36;1.83;;;1.70;;
15104;SDS011;7653;48.994;9.212;2023-04-23T10:20:03;4.70;;;1.60;;
15104;SDS011;7653;48.994;9.212;2023-04-23T10:22:29;1.57;;;1.30;;
15104;SDS011;7653;48.994;9.212;2023-04-23T10:24:56;2.40;;;1.33;;
15104;SDS011;7653;48.994;9.212;2023-04-23T10:27:25;1.93;;;1.47;;
15104;SDS011;7653;48.994;9.212;2023-04-23T10:29:52;1.20;;;1.10;;
15104;SDS011;7653;48.994;9.212;2023-04-23T10:32:19;3.03;;;1.60;;
15104;SDS011;7653;48.994;9.212;2023-04-23T10:34:45;2.03;;;1.20;;
15104;SDS011;7653;48.994;9.212;2023-04-23T10:37:12;1.60;;;1.50;;
15104;SDS011;7653;48.994;9.212;2023-04-23T10:39:39;1.33;;;1.17;;
15104;SDS011;7653;48.994;9.212;2023-04-23T10:42:08;1.30;;;1.20;;
15104;SDS011;7653;48.994;9.212;2023-04-23T10:44:37;1.63;;;1.00;;
15104;SDS011;7653;48.994;9.212;2023-04-23T10:47:04;2.17;;;1.10;;
15104;SDS011;7653;48.994;9.212;2023-04-23T10:49:33;1.77;;;1.20;;
15104;SDS011;7653;48.994;9.212;2023-04-23T10:52:03;1.87;;;1.20;;
15104;SDS011;7653;48.994;9.212;2023-04-23T10:54:33;1.20;;;1.07;;
15104;SDS011;7653;48.994;9.212;2023-04-23T10:57:00;4.63;;;1.30;;
15104;SDS011;7653;48.994;9.212;2023-04-23T10:59:29;1.53;;;1.20;;
15104;SDS011;7653;48.994;9.212;2023-04-23T11:01:57;1.57;;;1.10;;
15104;SDS011;7653;48.994;9.212;2023-04-23T11:06:54;1.53;;;1.10;;
15104;SDS011;7653;48.994;9.212;2023-04-23T11:11:53;1.90;;;1.30;;
15104;SDS011;7653;48.994;9.212;2023-04-23T11:14:19;1.50;;;1.40;;
15104;SDS011;7653;48.994;9.212;2023-04-23T11:16:57;1.93;;;1.30;;
15104;SDS011;7653;48.994;9.212;2023-04-23T11:19:23;2.80;;;1.30;;
15104;SDS011;7653;48.994;9.212;2023-04-23T11:24:44;3.47;;;1.30;;
15104;SDS011;7653;48.994;9.212;2023-04-23T11:27:14;1.97;;;1.10;;
15104;SDS011;7653;48.994;9.212;2023-04-23T11:29:42;1.23;;;0.83;;
15104;SDS011;7653;48.994;9.212;2023-04-23T11:32:08;0.80;;;0.80;;
15104;SDS011;7653;48.994;9.212;2023-04-23T11:34:37;0.80;;;0.80;;
15104;SDS011;7653;48.994;9.212;2023-04-23T11:37:04;1.20;;;1.10;;
15104;SDS011;7653;48.994;9.212;2023-04-23T11:39:30;1.50;;;1.00;;
15104;SDS011;7653;48.994;9.212;2023-04-23T11:41:56;1.07;;;0.80;;
15104;SDS011;7653;48.994;9.212;2023-04-23T11:44:27;0.90;;;0.90;;
15104;SDS011;7653;48.994;9.212;2023-04-23T11:46:54;1.77;;;1.00;;
15104;SDS011;7653;48.994;9.212;2023-04-23T11:49:23;1.63;;;1.00;;
15104;SDS011;7653;48.994;9.212;2023-04-23T11:51:48;2.13;;;1.03;;
15104;SDS011;7653;48.994;9.212;2023-04-23T11:54:14;1.33;;;0.90;;
15104;SDS011;7653;48.994;9.212;2023-04-23T11:56:40;0.70;;;0.70;;
15104;SDS011;7653;48.994;9.212;2023-04-23T11:59:06;0.80;;;0.80;;
15104;SDS011;7653;48.994;9.212;2023-04-23T12:01:42;1.27;;;0.90;;
15104;SDS011;7653;48.994;9.212;2023-04-23T12:06:39;1.07;;;0.70;;
15104;SDS011;7653;48.994;9.212;2023-04-23T12:09:06;1.33;;;0.90;;
15104;SDS011;7653;48.994;9.212;2023-04-23T12:11:35;1.67;;;0.90;;
15104;SDS011;7653;48.994;9.212;2023-04-23T12:14:01;1.33;;;0.73;;
15104;SDS011;7653;48.994;9.212;2023-04-23T12:19:27;0.73;;;0.73;;
15104;SDS011;7653;48.994;9.212;2023-04-23T12:21:59;1.10;;;0.90;;
15104;SDS011;7653;48.994;9.212;2023-04-23T12:24:27;1.17;;;0.90;;
15104;SDS011;7653;48.994;9.212;2023-04-23T12:26:55;1.17;;;0.77;;
15104;SDS011;7653;48.994;9.212;2023-04-23T12:29:24;3.70;;;1.00;;
15104;SDS011;7653;48.994;9.212;2023-04-23T12:31:51;0.80;;;0.80;;
15104;SDS011;7653;48.994;9.212;2023-04-23T12:34:18;0.70;;;0.70;;
15104;SDS011;7653;48.994;9.212;2023-04-23T12:36:46;1.00;;;0.70;;
15104;SDS011;7653;48.994;9.212;2023-04-23T12:41:54;1.20;;;0.63;;
15104;SDS011;7653;48.994;9.212;2023-04-23T12:44:24;0.70;;;0.70;;
15104;SDS011;7653;48.994;9.212;2023-04-23T12:46:54;0.77;;;0.73;;
15104;SDS011;7653;48.994;9.212;2023-04-23T12:49:21;0.70;;;0.60;;
15104;SDS011;7653;48.994;9.212;2023-04-23T12:51:47;0.60;;;0.60;;
15104;SDS011;7653;48.994;9.212;2023-04-23T12:54:12;2.10;;;0.83;;
15104;SDS011;7653;48.994;9.212;2023-04-23T12:56:39;1.37;;;0.80;;
15104;SDS011;7653;48.994;9.212;2023-04-23T12:59:05;0.93;;;0.60;;
15104;SDS011;7653;48.994;9.212;2023-04-23T13:01:31;0.60;;;0.60;;
15104;SDS011;7653;48.994;9.212;2023-04-23T13:03:57;1.20;;;0.80;;
15104;SDS011;7653;48.994;9.212;2023-04-23T13:06:22;1.50;;;0.70;;
15104;SDS011;7653;48.994;9.212;2023-04-23T13:08:50;0.70;;;0.70;;
15104;SDS011;7653;48.994;9.212;2023-04-23T13:11:16;0.60;;;0.60;;
15104;SDS011;7653;48.994;9.212;2023-04-23T13:13:42;1.05;;;0.70;;
15104;SDS011;7653;48.994;9.212;2023-04-23T13:16:07;0.80;;;0.80;;
15104;SDS011;7653;48.994;9.212;2023-04-23T13:18:33;0.65;;;0.65;;
15104;SDS011;7653;48.994;9.212;2023-04-23T13:20:59;1.37;;;0.60;;
15104;SDS011;7653;48.994;9.212;2023-04-23T13:23:24;1.83;;;0.70;;
15104;SDS011;7653;48.994;9.212;2023-04-23T13:25:50;0.70;;;0.70;;
15104;SDS011;7653;48.994;9.212;2023-04-23T13:28:16;0.83;;;0.70;;
15104;SDS011;7653;48.994;9.212;2023-04-23T13:30:41;1.07;;;0.57;;
15104;SDS011;7653;48.994;9.212;2023-04-23T13:33:07;1.00;;;0.80;;
15104;SDS011;7653;48.994;9.212;2023-04-23T13:35:32;0.67;;;0.67;;
15104;SDS011;7653;48.994;9.212;2023-04-23T13:38:01;0.93;;;0.70;;
15104;SDS011;7653;48.994;9.212;2023-04-23T13:40:27;1.00;;;0.70;;
15104;SDS011;7653;48.994;9.212;2023-04-23T13:42:53;0.73;;;0.67;;
15104;SDS011;7653;48.994;9.212;2023-04-23T13:45:19;1.00;;;0.70;;
15104;SDS011;7653;48.994;9.212;2023-04-23T13:47:44;1.00;;;0.80;;
15104;SDS011;7653;48.994;9.212;2023-04-23T13:50:10;1.10;;;0.70;;
15104;SDS011;7653;48.994;9.212;2023-04-23T13:52:36;0.95;;;0.75;;
15104;SDS011;7653;48.994;9.212;2023-04-23T13:55:03;0.80;;;0.70;;
15104;SDS011;7653;48.994;9.212;2023-04-23T13:57:31;0.70;;;0.70;;
15104;SDS011;7653;48.994;9.212;2023-04-23T13:59:57;1.95;;;0.90;;
15104;SDS011;7653;48.994;9.212;2023-04-23T14:02:24;1.03;;;0.60;;
15104;SDS011;7653;48.994;9.212;2023-04-23T14:04:50;0.67;;;0.67;;
15104;SDS011;7653;48.994;9.212;2023-04-23T14:07:16;0.93;;;0.90;;
15104;SDS011;7653;48.994;9.212;2023-04-23T14:09:41;0.60;;;0.60;;
15104;SDS011;7653;48.994;9.212;2023-04-23T14:12:08;0.63;;;0.63;;
15104;SDS011;7653;48.994;9.212;2023-04-23T14:14:34;1.77;;;0.70;;
15104;SDS011;7653;48.994;9.212;2023-04-23T14:17:00;0.85;;;0.60;;
15104;SDS011;7653;48.994;9.212;2023-04-23T14:19:25;0.75;;;0.70;;
15104;SDS011;7653;48.994;9.212;2023-04-23T14:21:51;1.48;;;0.80;;
15104;SDS011;7653;48.994;9.212;2023-04-23T14:24:27;0.90;;;0.90;;
15104;SDS011;7653;48.994;9.212;2023-04-23T14:26:57;0.80;;;0.80;;
15104;SDS011;7653;48.994;9.212;2023-04-23T14:32:13;0.80;;;0.80;;
15104;SDS011;7653;48.994;9.212;2023-04-23T14:34:39;0.82;;;0.70;;
15104;SDS011;7653;48.994;9.212;2023-04-23T14:37:05;0.70;;;0.70;;
15104;SDS011;7653;48.994;9.212;2023-04-23T14:39:30;1.03;;;0.50;;
15104;SDS011;7653;48.994;9.212;2023-04-23T14:41:58;2.47;;;0.90;;
15104;SDS011;7653;48.994;9.212;2023-04-23T14:44:24;0.80;;;0.80;;
15104;SDS011;7653;48.994;9.212;2023-04-23T14:46:53;0.60;;;0.60;;
15104;SDS011;7653;48.994;9.212;2023-04-23T14:49:19;1.40;;;0.70;;
15104;SDS011;7653;48.994;9.212;2023-04-23T14:51:46;0.60;;;0.60;;
15104;SDS011;7653;48.994;9.212;2023-04-23T14:54:17;1.07;;;0.60;;
15104;SDS011;7653;48.994;9.212;2023-04-23T14:56:43;0.93;;;0.50;;
15104;SDS011;7653;48.994;9.212;2023-04-23T14:59:10;0.83;;;0.60;;
15104;SDS011;7653;48.994;9.212;2023-04-23T15:01:35;0.93;;;0.53;;
15104;SDS011;7653;48.994;9.212;2023-04-23T15:04:01;1.07;;;0.70;;
15104;SDS011;7653;48.994;9.212;2023-04-23T15:06:27;0.63;;;0.63;;
15104;SDS011;7653;48.994;9.212;2023-04-23T15:08:52;0.80;;;0.80;;
15104;SDS011;7653;48.994;9.212;2023-04-23T15:11:18;0.80;;;0.60;;
15104;SDS011;7653;48.994;9.212;2023-04-23T15:16:29;0.40;;;0.40;;
15104;SDS011;7653;48.994;9.212;2023-04-23T15:18:57;0.90;;;0.50;;
15104;SDS011;7653;48.994;9.212;2023-04-23T15:21:24;0.60;;;0.60;;